Time;durP1;ratioP1;P1;durP2;ratioP2;P2;SDS_P1;SDS_P2;PMS_P1;PMS_P2;Temp;Humidity;BMP_temperature;BMP_pressure;BME280_temperature;BME280_humidity;BME280_pressure;Samples;Min_cycle;Max_cycle;Signal;HPM_P1;HPM_P2
2023/01/30 00:00:01;;;;;;;;;;;;;;;4.86;100.00;101683.44;5002198;28;20358;-63
2023/01/30 00:02:27;;;;;;;;;;;;;;;4.86;100.00;101678.22;4996379;28;19930;-63
2023/01/30 00:04:53;;;;;;;;;;;;;;;4.87;100.00;101674.72;4996942;28;20478;-63
2023/01/30 00:07:20;;;;;;;;;;;;;;;4.88;100.00;101676.38;4993207;28;20468;-63
2023/01/30 00:09:46;;;;;;;;;;;;;;;4.90;100.00;101662.38;5003131;28;19930;-62
2023/01/30 00:12:12;;;;;;;;;;;;;;;4.91;100.00;101660.59;5003605;28;19929;-63
2023/01/30 00:14:39;;;;;;;;;;;;;;;4.91;100.00;101679.63;4997529;28;19929;-64
2023/01/30 00:17:05;;;;;;;;;;;;;;;4.99;100.00;101658.41;5001352;28;19936;-64
2023/01/30 00:19:31;;;;;;;;;;;;;;;4.99;100.00;101661.00;4972939;28;19930;-64
2023/01/30 00:21:57;;;;;;;;;;;;;;;4.95;100.00;101678.53;4991334;28;19929;-64
2023/01/30 00:24:24;;;;;;;;;;;;;;;4.97;100.00;101646.41;4999599;28;20442;-62
2023/01/30 00:26:51;;;;;;;;;;;;;;;5.02;100.00;101665.16;4999635;28;19932;-64
2023/01/30 00:29:17;;;;;;;;;;;;;;;5.06;100.00;101656.28;5000548;28;19930;-62
2023/01/30 00:31:44;;;;;;;;;;;;;;;5.08;100.00;101644.88;4997731;28;20398;-61
2023/01/30 00:34:10;;;;;;;;;;;;;;;5.07;100.00;101650.16;4998155;28;20301;-62
2023/01/30 00:36:36;;;;;;;;;;;;;;;5.07;100.00;101637.16;4977566;28;19956;-65
2023/01/30 00:39:03;;;;;;;;;;;;;;;5.10;100.00;101627.41;5002661;28;20463;-64
2023/01/30 00:47:04;;;;;;;;;;;;;;;5.09;100.00;101636.13;4995414;28;20313;-60
2023/01/30 00:47:07;;;;;;;;;;;;;;;5.13;100.00;101615.97;4988785;28;20357;-61
2023/01/30 00:49:35;;;;;;;;;;;;;;;5.13;100.00;101610.78;4984651;28;19933;-62
2023/01/30 00:52:02;;;;;;;;;;;;;;;5.16;100.00;101615.81;4994982;28;19948;-64
2023/01/30 00:54:28;;;;;;;;;;;;;;;5.18;100.00;101608.75;4996100;28;19925;-63
2023/01/30 00:56:54;;;;;;;;;;;;;;;5.21;100.00;101605.13;5004359;28;19937;-62
2023/01/30 00:59:21;;;;;;;;;;;;;;;5.30;100.00;101588.97;4998618;28;19940;-62
2023/01/30 01:01:47;;;;;;;;;;;;;;;5.27;100.00;101592.59;4989717;28;19945;-61
2023/01/30 01:04:14;;;;;;;;;;;;;;;5.27;100.00;101597.78;4999694;28;19929;-62
2023/01/30 01:06:40;;;;;;;;;;;;;;;5.32;100.00;101587.09;4998987;28;19933;-63
2023/01/30 01:09:07;;;;;;;;;;;;;;;5.31;100.00;101581.06;4999248;28;19926;-64
2023/01/30 01:11:34;;;;;;;;;;;;;;;5.32;100.00;101568.88;4995661;28;19937;-65
2023/01/30 01:14:01;;;;;;;;;;;;;;;5.39;100.00;101558.91;4997553;28;19925;-61
2023/01/30 01:16:28;;;;;;;;;;;;;;;5.43;100.00;101581.22;4991295;28;19929;-61
2023/01/30 01:18:54;;;;;;;;;;;;;;;5.39;100.00;101593.59;5002235;28;19929;-63
2023/01/30 01:21:21;;;;;;;;;;;;;;;5.44;100.00;101603.72;5003949;28;19933;-63
2023/01/30 01:23:49;;;;;;;;;;;;;;;5.45;100.00;101582.81;4997429;28;20239;-62
2023/01/30 01:26:15;;;;;;;;;;;;;;;5.50;100.00;101578.16;5003712;28;20658;-62
2023/01/30 01:28:41;;;;;;;;;;;;;;;5.52;100.00;101565.03;4993670;28;19925;-63
2023/01/30 01:31:08;;;;;;;;;;;;;;;5.53;100.00;101561.53;4999861;28;20535;-62
2023/01/30 01:33:35;;;;;;;;;;;;;;;5.52;100.00;101567.66;4997019;28;20456;-61
2023/01/30 01:36:01;;;;;;;;;;;;;;;5.53;100.00;101551.94;5000108;28;20382;-63
2023/01/30 01:38:30;;;;;;;;;;;;;;;5.56;100.00;101553.50;5000200;28;20558;-62
2023/01/30 01:41:03;;;;;;;;;;;;;;;5.48;100.00;101554.00;4986939;28;19941;-62
2023/01/30 01:43:31;;;;;;;;;;;;;;;5.52;100.00;101565.88;4995733;28;19930;-63
2023/01/30 01:46:05;;;;;;;;;;;;;;;5.55;100.00;101546.66;4998166;28;20306;-61
2023/01/30 01:48:33;;;;;;;;;;;;;;;5.57;100.00;101534.38;5003505;28;20386;-61
2023/01/30 01:51:02;;;;;;;;;;;;;;;5.58;100.00;101530.81;4986008;28;20071;-61
2023/01/30 01:53:35;;;;;;;;;;;;;;;5.54;100.00;101524.16;4980621;28;19934;-64
2023/01/30 01:56:02;;;;;;;;;;;;;;;5.52;100.00;101521.63;5000603;28;19936;-64
2023/01/30 01:58:38;;;;;;;;;;;;;;;5.55;100.00;101518.84;4998910;28;19925;-62
2023/01/30 02:01:05;;;;;;;;;;;;;;;5.53;100.00;101512.91;5005953;28;19937;-61
2023/01/30 02:03:33;;;;;;;;;;;;;;;5.50;100.00;101518.28;5001804;28;19940;-62
2023/01/30 02:06:01;;;;;;;;;;;;;;;5.55;100.00;101511.03;5002222;28;19929;-61
2023/01/30 02:08:30;;;;;;;;;;;;;;;5.59;100.00;101506.47;4991751;28;19929;-61
2023/01/30 02:11:03;;;;;;;;;;;;;;;5.54;100.00;101501.56;5003055;28;19929;-62
2023/01/30 02:13:30;;;;;;;;;;;;;;;5.57;100.00;101500.53;5002613;28;20848;-61
2023/01/30 02:15:57;;;;;;;;;;;;;;;5.59;100.00;101503.88;4996412;28;19933;-63
2023/01/30 02:18:24;;;;;;;;;;;;;;;5.62;100.00;101503.66;5007019;28;20518;-61
2023/01/30 02:21:02;;;;;;;;;;;;;;;5.62;100.00;101502.84;4980651;28;20000;-64
2023/01/30 02:23:48;;;;;;;;;;;;;;;5.62;100.00;101492.44;5002684;28;19929;-64
2023/01/30 02:26:23;;;;;;;;;;;;;;;5.67;100.00;101495.59;5001209;28;19936;-64
2023/01/30 02:29:00;;;;;;;;;;;;;;;5.67;100.00;101500.78;5007730;28;19929;-63
2023/01/30 02:31:31;;;;;;;;;;;;;;;5.69;100.00;101498.94;5000208;28;21345;-64
2023/01/30 02:34:06;;;;;;;;;;;;;;;5.73;100.00;101508.22;5003038;28;19932;-64
2023/01/30 02:36:39;;;;;;;;;;;;;;;5.72;100.00;101496.13;4993258;28;19937;-64
2023/01/30 02:39:15;;;;;;;;;;;;;;;5.75;100.00;101501.13;4998770;28;19926;-64
2023/01/30 02:41:47;;;;;;;;;;;;;;;5.72;100.00;101490.91;5007149;28;19930;-65
2023/01/30 02:44:23;;;;;;;;;;;;;;;5.72;100.00;101494.38;4998430;28;19925;-62
2023/01/30 02:46:53;;;;;;;;;;;;;;;5.73;100.00;101490.81;4999673;28;19944;-61
2023/01/30 02:49:31;;;;;;;;;;;;;;;5.80;100.00;101480.84;4994120;28;19925;-63
2023/01/30 02:51:59;;;;;;;;;;;;;;;5.85;100.00;101489.19;5002102;28;20348;-66
2023/01/30 02:54:25;;;;;;;;;;;;;;;5.84;100.00;101478.88;5000746;28;19980;-64
2023/01/30 02:56:53;;;;;;;;;;;;;;;5.85;100.00;101467.53;5006905;28;19936;-65
2023/01/30 02:59:35;;;;;;;;;;;;;;;5.89;100.00;101477.63;5006190;28;20012;-64
2023/01/30 03:02:10;;;;;;;;;;;;;;;5.93;100.00;101453.06;5000634;28;19941;-65
2023/01/30 03:04:55;;;;;;;;;;;;;;;5.97;100.00;101451.13;4996626;28;19973;-64
2023/01/30 03:07:40;;;;;;;;;;;;;;;6.04;100.00;101454.19;5000286;28;19934;-62
2023/01/30 03:10:06;;;;;;;;;;;;;;;6.10;100.00;101451.16;5006852;28;19984;-62
2023/01/30 03:12:42;;;;;;;;;;;;;;;6.12;100.00;101455.31;4999798;28;19935;-65
2023/01/30 03:15:11;;;;;;;;;;;;;;;6.16;100.00;101447.31;5002904;28;19937;-65
2023/01/30 03:17:39;;;;;;;;;;;;;;;6.20;100.00;101448.78;4973029;28;20248;-63
2023/01/30 03:20:06;;;;;;;;;;;;;;;6.21;100.00;101445.22;5000896;28;19932;-62
2023/01/30 03:22:32;;;;;;;;;;;;;;;6.14;100.00;101453.44;5001516;28;20370;-62
2023/01/30 03:24:59;;;;;;;;;;;;;;;6.10;100.00;101443.34;5005626;28;20017;-62
2023/01/30 03:27:25;;;;;;;;;;;;;;;6.14;100.00;101448.25;5006550;28;20409;-62
2023/01/30 03:29:52;;;;;;;;;;;;;;;6.17;100.00;101441.97;4994346;28;20448;-62
2023/01/30 03:32:18;;;;;;;;;;;;;;;6.20;100.00;101436.59;4994593;28;19931;-63
2023/01/30 03:34:44;;;;;;;;;;;;;;;6.22;100.00;101442.53;4996634;28;20442;-62
2023/01/30 03:37:11;;;;;;;;;;;;;;;6.17;100.00;101434.16;5006734;28;20967;-63
2023/01/30 03:39:37;;;;;;;;;;;;;;;6.17;100.00;101428.13;5003407;28;19929;-62
2023/01/30 03:42:03;;;;;;;;;;;;;;;6.20;100.00;101428.78;4994429;28;19937;-62
2023/01/30 03:44:30;;;;;;;;;;;;;;;6.22;100.00;101429.50;4997491;28;19937;-62
2023/01/30 03:46:56;;;;;;;;;;;;;;;6.22;100.00;101434.72;4994413;28;19929;-62
2023/01/30 03:49:22;;;;;;;;;;;;;;;6.24;100.00;101432.00;5005772;28;19940;-62
2023/01/30 03:51:49;;;;;;;;;;;;;;;6.28;100.00;101423.88;4982917;28;19929;-63
2023/01/30 03:54:15;;;;;;;;;;;;;;;6.26;100.00;101433.56;5006238;28;19936;-62
2023/01/30 03:56:41;;;;;;;;;;;;;;;6.27;100.00;101443.06;5005108;28;19991;-62
2023/01/30 03:59:08;;;;;;;;;;;;;;;6.28;100.00;101423.88;4985586;28;19930;-62
2023/01/30 04:01:34;;;;;;;;;;;;;;;6.32;100.00;101429.72;5004964;28;19937;-63
2023/01/30 04:04:01;;;;;;;;;;;;;;;6.34;100.00;101431.25;4991438;28;19926;-62
2023/01/30 04:06:27;;;;;;;;;;;;;;;6.35;100.00;101421.69;5005922;28;19956;-64
2023/01/30 04:08:53;;;;;;;;;;;;;;;6.32;100.00;101427.94;4986303;28;19929;-62
2023/01/30 04:11:20;;;;;;;;;;;;;;;6.37;100.00;101432.84;5001030;28;20477;-63
2023/01/30 04:13:46;;;;;;;;;;;;;;;6.38;100.00;101444.09;4999069;28;19933;-62
2023/01/30 04:16:20;;;;;;;;;;;;;;;6.43;100.00;101428.97;4999852;28;19984;-63
2023/01/30 04:18:47;;;;;;;;;;;;;;;6.46;100.00;101424.38;4997633;28;19929;-62
2023/01/30 04:21:13;;;;;;;;;;;;;;;6.48;100.00;101427.72;4992301;28;19945;-63
2023/01/30 04:23:40;;;;;;;;;;;;;;;6.53;100.00;101440.47;5003954;28;20275;-62
2023/01/30 04:26:07;;;;;;;;;;;;;;;6.56;100.00;101440.22;4992224;28;19964;-63
2023/01/30 04:28:33;;;;;;;;;;;;;;;6.59;100.00;101431.38;4981098;28;19930;-63
2023/01/30 04:31:00;;;;;;;;;;;;;;;6.61;100.00;101439.94;4998063;28;20661;-63
2023/01/30 04:33:27;;;;;;;;;;;;;;;6.64;100.00;101430.09;4993258;28;19925;-64
2023/01/30 04:35:54;;;;;;;;;;;;;;;6.65;100.00;101439.59;4981675;28;22344;-63
2023/01/30 04:38:21;;;;;;;;;;;;;;;6.69;100.00;101430.63;4993497;28;20279;-63
2023/01/30 04:40:51;;;;;;;;;;;;;;;6.67;100.00;101431.69;4996690;28;20412;-64
2023/01/30 04:43:18;;;;;;;;;;;;;;;6.69;100.00;101415.00;4994095;28;19929;-62
2023/01/30 04:45:45;;;;;;;;;;;;;;;6.67;100.00;101411.66;5005223;28;19974;-64
2023/01/30 04:48:12;;;;;;;;;;;;;;;6.67;100.00;101416.88;4996726;28;19929;-64
2023/01/30 04:50:39;;;;;;;;;;;;;;;6.69;100.00;101420.19;5002200;28;19971;-62
2023/01/30 04:53:05;;;;;;;;;;;;;;;6.68;100.00;101415.09;4999205;28;19929;-61
2023/01/30 04:55:32;;;;;;;;;;;;;;;6.69;100.00;101421.97;4995039;28;19933;-62
2023/01/30 04:57:58;;;;;;;;;;;;;;;6.72;100.00;101429.56;5004154;28;19929;-63
2023/01/30 05:00:24;;;;;;;;;;;;;;;6.73;100.00;101431.25;4998918;28;19936;-63
2023/01/30 05:02:51;;;;;;;;;;;;;;;6.73;100.00;101437.28;5002730;28;20027;-65
2023/01/30 05:05:18;;;;;;;;;;;;;;;6.73;100.00;101442.50;4991516;28;19941;-65
2023/01/30 05:07:45;;;;;;;;;;;;;;;6.75;100.00;101438.97;4989210;28;19964;-63
2023/01/30 05:10:11;;;;;;;;;;;;;;;6.75;100.00;101438.97;5003799;28;20347;-63
2023/01/30 05:12:37;;;;;;;;;;;;;;;6.79;100.00;101414.34;4996164;28;19929;-63
2023/01/30 05:15:05;;;;;;;;;;;;;;;6.83;100.00;101423.63;5004535;28;20020;-63
2023/01/30 05:17:32;;;;;;;;;;;;;;;6.86;100.00;101419.03;4977858;28;20325;-63
2023/01/30 05:19:58;;;;;;;;;;;;;;;6.87;100.00;101425.06;4999667;28;19932;-64
2023/01/30 05:22:25;;;;;;;;;;;;;;;6.89;100.00;101423.19;4999556;28;19937;-64
2023/01/30 05:24:51;;;;;;;;;;;;;;;6.92;100.00;101416.00;4998287;28;19937;-64
2023/01/30 05:27:18;;;;;;;;;;;;;;;6.92;100.00;101420.38;4997950;28;19929;-64
2023/01/30 05:29:44;;;;;;;;;;;;;;;6.91;100.00;101429.97;4998152;28;19929;-62
2023/01/30 05:32:14;;;;;;;;;;;;;;;6.93;100.00;101428.06;5004667;28;19925;-62
2023/01/30 05:34:40;;;;;;;;;;;;;;;6.96;100.00;101426.19;4994738;28;19936;-62
2023/01/30 05:37:06;;;;;;;;;;;;;;;6.98;100.00;101419.94;5002837;28;19937;-62
2023/01/30 05:39:33;;;;;;;;;;;;;;;7.00;100.00;101415.47;5008631;28;19968;-64
2023/01/30 05:41:59;;;;;;;;;;;;;;;7.01;100.00;101429.31;4997305;28;20543;-62
2023/01/30 05:44:25;;;;;;;;;;;;;;;7.04;100.00;101437.78;5004576;28;20020;-62
2023/01/30 05:46:52;;;;;;;;;;;;;;;7.00;100.00;101430.25;5001800;28;20334;-63
2023/01/30 05:49:18;;;;;;;;;;;;;;;7.00;100.00;101451.13;5002123;28;19934;-64
2023/01/30 05:51:44;;;;;;;;;;;;;;;6.99;100.00;101444.25;5001692;28;19926;-63
2023/01/30 05:54:11;;;;;;;;;;;;;;;7.03;100.00;101446.53;5007255;28;20549;-64
2023/01/30 05:56:37;;;;;;;;;;;;;;;7.02;100.00;101455.31;5007728;28;19940;-63
2023/01/30 05:59:04;;;;;;;;;;;;;;;7.06;100.00;101448.09;5001812;28;19929;-64
2023/01/30 06:01:30;;;;;;;;;;;;;;;7.06;100.00;101437.66;5003323;28;19925;-63
2023/01/30 06:03:57;;;;;;;;;;;;;;;7.07;100.00;101429.72;4996191;28;19933;-63
2023/01/30 06:06:24;;;;;;;;;;;;;;;7.08;100.00;101434.00;5003457;28;19929;-63
2023/01/30 06:08:54;;;;;;;;;;;;;;;7.01;100.00;101443.19;5001653;28;19929;-63
2023/01/30 06:11:21;;;;;;;;;;;;;;;6.98;100.00;101437.34;5006643;28;20372;-63
2023/01/30 06:13:48;;;;;;;;;;;;;;;6.95;100.00;101437.59;5008007;28;19940;-63
2023/01/30 06:16:15;;;;;;;;;;;;;;;6.93;100.00;101438.50;4994084;28;20452;-63
2023/01/30 06:18:42;;;;;;;;;;;;;;;6.97;100.00;101435.69;4992895;28;19972;-62
2023/01/30 06:21:08;;;;;;;;;;;;;;;6.94;100.00;101457.63;4997290;28;19984;-64
2023/01/30 06:23:35;;;;;;;;;;;;;;;6.94;100.00;101460.22;5006808;28;19983;-63
2023/01/30 06:26:01;;;;;;;;;;;;;;;6.95;100.00;101458.44;4998664;28;19926;-62
2023/01/30 06:28:30;;;;;;;;;;;;;;;6.88;100.00;101447.59;5003968;28;19929;-62
2023/01/30 06:30:57;;;;;;;;;;;;;;;6.83;100.00;101467.97;5001143;28;19933;-62
2023/01/30 06:33:23;;;;;;;;;;;;;;;6.83;100.00;101473.19;5000384;28;20024;-62
2023/01/30 06:35:50;;;;;;;;;;;;;;;6.79;100.00;101477.75;5004558;28;19956;-62
2023/01/30 06:38:16;;;;;;;;;;;;;;;6.76;100.00;101472.75;4998765;28;19937;-63
2023/01/30 06:40:44;;;;;;;;;;;;;;;6.78;100.00;101465.66;5008138;28;19925;-62
2023/01/30 06:43:10;;;;;;;;;;;;;;;6.78;100.00;101470.03;4989198;28;19934;-63
2023/01/30 06:45:37;;;;;;;;;;;;;;;6.74;100.00;101464.19;5000463;28;19937;-62
2023/01/30 06:48:03;;;;;;;;;;;;;;;6.75;100.00;101471.09;4999626;28;20348;-62
2023/01/30 06:50:30;;;;;;;;;;;;;;;6.75;100.00;101472.88;5000812;28;20291;-63
2023/01/30 06:52:57;;;;;;;;;;;;;;;6.69;100.00;101472.34;5002262;28;20409;-62
2023/01/30 06:55:24;;;;;;;;;;;;;;;6.63;100.00;101467.56;4999842;28;19932;-62
2023/01/30 06:58:07;;;;;;;;;;;;;;;6.53;100.00;101475.16;4998477;28;19929;-62
2023/01/30 07:00:34;;;;;;;;;;;;;;;6.53;100.00;101482.16;4979870;28;20124;-62
2023/01/30 07:03:01;;;;;;;;;;;;;;;6.49;100.00;101483.31;5003435;28;19925;-62
2023/01/30 07:05:27;;;;;;;;;;;;;;;6.48;100.00;101481.63;5006876;28;19933;-63
2023/01/30 07:07:54;;;;;;;;;;;;;;;6.41;100.00;101481.22;4994643;28;19944;-63
2023/01/30 07:10:20;;;;;;;;;;;;;;;6.40;100.00;101487.34;5004917;28;19932;-63
2023/01/30 07:12:46;;;;;;;;;;;;;;;6.31;100.00;101496.63;4995131;28;19929;-62
2023/01/30 07:15:13;;;;;;;;;;;;;;;6.31;100.00;101495.78;5005496;28;19933;-62
2023/01/30 07:17:40;;;;;;;;;;;;;;;6.27;100.00;101492.56;4996775;28;19984;-62
2023/01/30 07:20:08;;;;;;;;;;;;;;;6.22;100.00;101512.03;4996060;28;19933;-62
2023/01/30 07:22:34;;;;;;;;;;;;;;;6.20;100.00;101506.09;5004095;28;19968;-62
2023/01/30 07:25:00;;;;;;;;;;;;;;;6.17;100.00;101516.69;4993761;28;19925;-63
2023/01/30 07:27:27;;;;;;;;;;;;;;;6.12;100.00;101524.84;5001447;28;19937;-62
2023/01/30 07:29:53;;;;;;;;;;;;;;;6.13;100.00;101527.34;4994391;28;19925;-63
2023/01/30 07:32:19;;;;;;;;;;;;;;;6.09;100.00;101528.44;4986252;28;20024;-64
2023/01/30 07:34:46;;;;;;;;;;;;;;;6.08;100.00;101520.75;4996744;28;19929;-62
2023/01/30 07:37:12;;;;;;;;;;;;;;;6.02;100.00;101516.78;5004833;28;20298;-63
2023/01/30 07:39:38;;;;;;;;;;;;;;;5.98;100.00;101522.28;4992589;28;19926;-64
2023/01/30 07:42:05;;;;;;;;;;;;;;;5.98;100.00;101514.47;4992587;28;20410;-63
2023/01/30 07:44:32;;;;;;;;;;;;;;;5.97;100.00;101507.59;5002287;28;19932;-62
2023/01/30 07:46:59;;;;;;;;;;;;;;;5.99;100.00;101516.97;4998860;28;19929;-62
2023/01/30 07:49:26;;;;;;;;;;;;;;;5.99;100.00;101529.16;5005338;28;20378;-63
2023/01/30 07:51:52;;;;;;;;;;;;;;;5.97;100.00;101542.28;4997951;28;19929;-63
2023/01/30 07:54:18;;;;;;;;;;;;;;;5.99;100.00;101534.38;4998238;28;20013;-63
2023/01/30 07:56:45;;;;;;;;;;;;;;;5.96;100.00;101519.78;5000755;28;20357;-63
2023/01/30 07:59:11;;;;;;;;;;;;;;;5.91;100.00;101516.59;4986799;28;19937;-63
2023/01/30 08:01:38;;;;;;;;;;;;;;;5.93;100.00;101520.78;4997566;28;19941;-64
2023/01/30 08:04:04;;;;;;;;;;;;;;;5.92;100.00;101510.47;5000180;28;19930;-66
2023/01/30 08:06:31;;;;;;;;;;;;;;;5.88;100.00;101524.59;5004632;28;19936;-63
2023/01/30 08:08:57;;;;;;;;;;;;;;;5.86;100.00;101522.13;4995782;28;19936;-64
2023/01/30 08:11:23;;;;;;;;;;;;;;;5.85;100.00;101524.81;5008084;28;19933;-64
2023/01/30 08:13:50;;;;;;;;;;;;;;;5.85;100.00;101530.84;5004734;28;20425;-63
2023/01/30 08:16:16;;;;;;;;;;;;;;;5.84;100.00;101538.75;4997844;28;19925;-63
2023/01/30 08:18:43;;;;;;;;;;;;;;;5.87;100.00;101551.59;5007567;28;20021;-64
2023/01/30 08:21:10;;;;;;;;;;;;;;;5.91;100.00;101537.44;4995087;28;19936;-64
2023/01/30 08:23:36;;;;;;;;;;;;;;;5.92;100.00;101552.13;5001586;28;19952;-63
2023/01/30 08:26:03;;;;;;;;;;;;;;;5.94;100.00;101547.66;5001250;28;19930;-63
2023/01/30 08:28:30;;;;;;;;;;;;;;;5.96;100.00;101552.78;5006242;28;19929;-65
2023/01/30 08:30:56;;;;;;;;;;;;;;;6.02;100.00;101560.19;5000768;28;20039;-63
2023/01/30 08:33:23;;;;;;;;;;;;;;;5.99;100.00;101566.44;4996674;28;20382;-65
2023/01/30 08:35:50;;;;;;;;;;;;;;;6.01;100.00;101571.56;4995254;28;19936;-64
2023/01/30 08:38:16;;;;;;;;;;;;;;;6.05;100.00;101573.03;4999304;28;20032;-64
2023/01/30 08:40:43;;;;;;;;;;;;;;;6.08;100.00;101578.06;5007427;28;19948;-64
2023/01/30 08:43:10;;;;;;;;;;;;;;;6.06;100.00;101583.38;4976885;28;19960;-66
2023/01/30 08:45:36;;;;;;;;;;;;;;;6.11;100.00;101570.84;5002088;28;19926;-64
2023/01/30 08:48:04;;;;;;;;;;;;;;;6.14;100.00;101567.25;4997505;28;19937;-64
2023/01/30 08:50:31;;;;;;;;;;;;;;;6.19;100.00;101569.53;4995969;28;19929;-65
2023/01/30 08:53:02;;;;;;;;;;;;;;;6.19;100.00;101554.72;5005806;28;20412;-64
2023/01/30 08:55:28;;;;;;;;;;;;;;;6.21;100.00;101576.31;5000818;28;19929;-64
2023/01/30 08:57:55;;;;;;;;;;;;;;;6.24;100.00;101570.09;5005660;28;20609;-64
2023/01/30 09:00:21;;;;;;;;;;;;;;;6.24;100.00;101581.34;5001842;28;21950;-64
2023/01/30 09:02:51;;;;;;;;;;;;;;;6.28;100.00;101588.00;5000399;28;19930;-64
2023/01/30 09:05:17;;;;;;;;;;;;;;;6.34;100.00;101598.03;5005912;28;20332;-65
2023/01/30 09:07:44;;;;;;;;;;;;;;;6.34;100.00;101607.63;5001072;28;20418;-64
2023/01/30 09:10:10;;;;;;;;;;;;;;;6.42;100.00;101604.53;4986506;28;19930;-64
2023/01/30 09:12:36;;;;;;;;;;;;;;;6.49;100.00;101617.06;4998199;28;19991;-64
2023/01/30 09:15:03;;;;;;;;;;;;;;;6.60;100.00;101598.09;4995873;28;19937;-64
2023/01/30 09:17:29;;;;;;;;;;;;;;;6.64;100.00;101628.25;4983861;28;19932;-64
2023/01/30 09:19:56;;;;;;;;;;;;;;;6.72;100.00;101615.56;5001274;28;19984;-65
2023/01/30 09:22:22;;;;;;;;;;;;;;;6.78;100.00;101622.09;4998355;28;19969;-65
2023/01/30 09:24:48;;;;;;;;;;;;;;;6.80;100.00;101622.00;4998382;28;19936;-66
2023/01/30 09:27:15;;;;;;;;;;;;;;;6.82;100.00;101622.75;5002863;28;19937;-65
2023/01/30 09:29:41;;;;;;;;;;;;;;;6.86;100.00;101616.38;4994422;28;20426;-65
2023/01/30 09:32:10;;;;;;;;;;;;;;;6.88;100.00;101612.75;5002764;28;20310;-66
2023/01/30 09:34:36;;;;;;;;;;;;;;;6.90;100.00;101608.28;4998483;28;20357;-65
2023/01/30 09:37:03;;;;;;;;;;;;;;;6.89;100.00;101624.00;4989636;28;19930;-65
2023/01/30 09:39:30;;;;;;;;;;;;;;;6.95;100.00;101613.16;5006876;28;20023;-65
2023/01/30 09:42:15;;;;;;;;;;;;;;;6.98;100.00;101607.75;4989302;28;20021;-65
2023/01/30 09:44:41;;;;;;;;;;;;;;;6.95;100.00;101612.34;5001933;28;20297;-65
2023/01/30 09:47:12;;;;;;;;;;;;;;;6.99;100.00;101625.06;4997998;28;19953;-66
2023/01/30 09:49:58;;;;;;;;;;;;;;;7.00;100.00;101626.75;5006896;28;19984;-66
2023/01/30 09:52:25;;;;;;;;;;;;;;;6.97;100.00;101626.94;4985007;28;19936;-65
2023/01/30 09:54:55;;;;;;;;;;;;;;;7.00;100.00;101631.97;5006218;28;19936;-66
2023/01/30 09:57:23;;;;;;;;;;;;;;;7.03;100.00;101629.13;4991948;28;19964;-65
2023/01/30 09:59:52;;;;;;;;;;;;;;;7.07;100.00;101646.25;4995328;28;19925;-66
2023/01/30 10:02:28;;;;;;;;;;;;;;;7.10;100.00;101648.66;5003784;28;20020;-66
2023/01/30 10:04:55;;;;;;;;;;;;;;;7.16;100.00;101643.97;4997382;28;19937;-65
2023/01/30 10:07:50;;;;;;;;;;;;;;;7.15;100.00;101652.72;5000607;28;19925;-65
2023/01/30 10:10:29;;;;;;;;;;;;;;;7.25;100.00;101644.19;4986283;28;19988;-65
2023/01/30 10:13:06;;;;;;;;;;;;;;;7.26;100.00;101645.00;4998674;28;20366;-65
2023/01/30 10:15:35;;;;;;;;;;;;;;;7.29;100.00;101647.41;4999871;28;19969;-65
2023/01/30 10:18:01;;;;;;;;;;;;;;;7.31;100.00;101641.16;5003429;28;19926;-65
2023/01/30 10:20:31;;;;;;;;;;;;;;;7.33;100.00;101648.84;4999268;28;20480;-66
2023/01/30 10:23:07;;;;;;;;;;;;;;;7.34;100.00;101647.94;5006066;28;19944;-66
2023/01/30 10:25:33;;;;;;;;;;;;;;;7.39;100.00;101658.91;5004686;28;19937;-65
2023/01/30 10:28:05;;;;;;;;;;;;;;;7.45;100.00;101655.03;4999086;28;19936;-65
2023/01/30 10:30:32;;;;;;;;;;;;;;;7.43;100.00;101656.88;4997734;28;19961;-65
2023/01/30 10:33:12;;;;;;;;;;;;;;;7.37;100.00;101646.88;4998469;28;19972;-66
2023/01/30 10:35:41;;;;;;;;;;;;;;;7.40;100.00;101667.56;5004580;28;19983;-65
2023/01/30 10:38:27;;;;;;;;;;;;;;;7.37;100.00;101671.22;4993499;28;19926;-66
2023/01/30 10:40:59;;;;;;;;;;;;;;;7.39;100.00;101666.72;5005038;28;19932;-65
2023/01/30 10:43:35;;;;;;;;;;;;;;;7.38;100.00;101674.66;4995286;28;19983;-65
2023/01/30 10:46:16;;;;;;;;;;;;;;;7.42;100.00;101678.72;5007206;28;20374;-65
2023/01/30 10:48:57;;;;;;;;;;;;;;;7.44;100.00;101671.63;5000961;28;19981;-66
2023/01/30 10:51:30;;;;;;;;;;;;;;;7.45;100.00;101678.53;5007194;28;19965;-66
2023/01/30 10:53:56;;;;;;;;;;;;;;;7.43;100.00;101665.59;5002469;28;20285;-65
2023/01/30 10:56:29;;;;;;;;;;;;;;;7.46;100.00;101651.47;5001603;28;19925;-65
2023/01/30 10:59:13;;;;;;;;;;;;;;;7.49;100.00;101659.94;5006717;28;19937;-65
2023/01/30 11:01:43;;;;;;;;;;;;;;;7.48;100.00;101663.47;5003918;28;19929;-65
2023/01/30 11:04:16;;;;;;;;;;;;;;;7.47;100.00;101653.97;5008426;28;19952;-65
2023/01/30 11:06:42;;;;;;;;;;;;;;;7.52;100.00;101658.88;4998263;28;20448;-65
2023/01/30 11:09:08;;;;;;;;;;;;;;;7.66;100.00;101663.13;5002715;28;20184;-65
2023/01/30 11:11:41;;;;;;;;;;;;;;;7.75;100.00;101667.72;5003419;28;19929;-65
2023/01/30 11:14:08;;;;;;;;;;;;;;;7.76;100.00;101668.56;4989821;28;19926;-65
2023/01/30 11:16:55;;;;;;;;;;;;;;;7.78;100.00;101664.06;5010232;28;19934;-65
2023/01/30 11:19:30;;;;;;;;;;;;;;;7.89;100.00;101680.66;4995755;28;19997;-65
2023/01/30 11:22:00;;;;;;;;;;;;;;;8.01;100.00;101670.28;5001862;28;19929;-65
2023/01/30 11:24:30;;;;;;;;;;;;;;;7.95;96.95;101676.78;5003153;28;20302;-66
2023/01/30 11:27:20;;;;;;;;;;;;;;;8.06;96.66;101679.47;5007801;28;19929;-66
2023/01/30 11:29:49;;;;;;;;;;;;;;;8.14;97.33;101672.88;4992188;28;19988;-66
2023/01/30 11:32:21;;;;;;;;;;;;;;;8.12;96.10;101670.38;5008713;28;19929;-65
2023/01/30 11:35:01;;;;;;;;;;;;;;;8.09;95.76;101660.13;4995179;28;19929;-66
2023/01/30 11:37:37;;;;;;;;;;;;;;;8.20;93.40;101664.59;4995376;28;20017;-65
2023/01/30 11:40:16;;;;;;;;;;;;;;;8.24;90.44;101674.69;5002156;28;19926;-64
2023/01/30 11:42:44;;;;;;;;;;;;;;;8.37;94.21;101669.44;5000446;28;19926;-64
2023/01/30 11:45:11;;;;;;;;;;;;;;;8.43;90.56;101665.59;5008270;28;20508;-64
2023/01/30 11:47:54;;;;;;;;;;;;;;;8.48;89.54;101676.53;4996424;28;19929;-65
2023/01/30 11:50:30;;;;;;;;;;;;;;;8.52;92.05;101670.13;4990570;28;19936;-65
2023/01/30 11:53:03;;;;;;;;;;;;;;;8.60;89.60;101669.56;4997949;28;19969;-66
2023/01/30 11:55:32;;;;;;;;;;;;;;;8.51;86.87;101669.28;5005554;28;20279;-65
2023/01/30 11:58:00;;;;;;;;;;;;;;;8.62;89.51;101676.34;5001079;28;19929;-64
2023/01/30 12:00:36;;;;;;;;;;;;;;;8.58;88.25;101656.59;5005433;28;19972;-65
2023/01/30 12:03:04;;;;;;;;;;;;;;;8.66;88.78;101692.63;4993863;28;20358;-66
2023/01/30 12:05:33;;;;;;;;;;;;;;;8.71;85.22;101686.13;5007014;28;19925;-64
2023/01/30 12:08:12;;;;;;;;;;;;;;;8.85;88.43;101681.66;5005962;28;19937;-66
2023/01/30 12:10:41;;;;;;;;;;;;;;;8.79;80.50;101682.94;5001128;28;20032;-64
2023/01/30 12:13:20;;;;;;;;;;;;;;;8.87;83.67;101682.38;4989936;28;19930;-66
2023/01/30 12:15:51;;;;;;;;;;;;;;;8.86;81.56;101696.41;4995173;28;19930;-67
2023/01/30 12:18:42;;;;;;;;;;;;;;;8.78;79.46;101685.66;4988796;28;19930;-66
2023/01/30 12:21:16;;;;;;;;;;;;;;;8.95;81.84;101705.38;4996197;28;19926;-66
2023/01/30 12:23:51;;;;;;;;;;;;;;;8.76;77.04;101684.94;5006171;28;19925;-66
2023/01/30 12:26:17;;;;;;;;;;;;;;;8.81;79.21;101682.84;5001273;28;19929;-65
2023/01/30 12:28:49;;;;;;;;;;;;;;;8.77;80.26;101681.41;5006018;28;20167;-66
2023/01/30 12:31:23;;;;;;;;;;;;;;;8.83;82.63;101688.78;4995311;28;19929;-64
2023/01/30 12:33:50;;;;;;;;;;;;;;;8.68;82.07;101696.84;5007207;28;19926;-65
2023/01/30 12:36:35;;;;;;;;;;;;;;;8.67;82.64;101699.56;5006086;28;20429;-65
2023/01/30 12:39:04;;;;;;;;;;;;;;;8.64;80.99;101697.97;5000741;28;20040;-65
2023/01/30 12:41:41;;;;;;;;;;;;;;;8.55;80.50;101701.28;5004603;28;19952;-64
2023/01/30 12:44:43;;;;;;;;;;;;;;;8.60;80.40;101714.00;4986698;28;19936;-65
2023/01/30 12:47:15;;;;;;;;;;;;;;;8.61;82.59;101715.69;4889142;29;19946;-64
2023/01/30 12:49:53;;;;;;;;;;;;;;;8.56;82.30;101721.25;4883024;29;19934;-65